Time;durP1;ratioP1;P1;durP2;ratioP2;P2;SDS_P1;SDS_P2;PMS_P1;PMS_P2;Temp;Humidity;BMP_temperature;BMP_pressure;BME280_temperature;BME280_humidity;BME280_pressure;Samples;Min_cycle;Max_cycle;Signal;HPM_P1;HPM_P2
2021/12/22 00:02:06;;;;;;;;;20.75;18.75;;;;;20.75;35.51;101987.84;4998466;28;51770;-54
2021/12/22 00:04:33;;;;;;;;;21.00;17.00;;;;;20.71;35.27;101986.53;5004165;28;51250;-53
2021/12/22 00:06:58;;;;;;;;;19.25;16.00;;;;;20.68;35.32;101989.69;5008880;28;52317;-54
2021/12/22 00:09:24;;;;;;;;;19.75;18.50;;;;;20.66;35.44;101994.53;5003664;28;51111;-53
2021/12/22 00:11:49;;;;;;;;;22.50;20.75;;;;;20.64;35.55;101990.28;4998415;28;51673;-53
2021/12/22 00:14:16;;;;;;;;;20.50;17.75;;;;;20.60;35.76;101988.94;5022941;28;51096;-54
2021/12/22 00:16:42;;;;;;;;;18.75;16.50;;;;;20.57;35.71;101981.09;5007684;28;51220;-49
2021/12/22 00:19:08;;;;;;;;;19.00;18.25;;;;;20.55;35.55;101980.44;5007445;28;51195;-53
2021/12/22 00:21:34;;;;;;;;;20.75;16.50;;;;;20.53;35.57;101977.88;5017380;28;51781;-54
2021/12/22 00:24:00;;;;;;;;;18.00;15.75;;;;;20.50;35.34;101967.25;5002192;28;51318;-51
2021/12/22 00:26:25;;;;;;;;;18.00;15.25;;;;;20.46;35.69;101980.56;5009015;28;51316;-55
2021/12/22 00:28:51;;;;;;;;;21.50;17.50;;;;;20.44;35.50;101974.41;5002390;28;51181;-55
2021/12/22 00:31:19;;;;;;;;;21.25;17.75;;;;;20.41;35.34;101965.63;5014174;28;51076;-55
2021/12/22 00:33:51;;;;;;;;;21.50;19.00;;;;;20.39;35.64;101970.47;5014527;28;51442;-55
2021/12/22 00:36:20;;;;;;;;;18.25;17.00;;;;;20.37;35.46;101976.19;5013603;28;51192;-54
2021/12/22 00:38:46;;;;;;;;;18.00;15.75;;;;;20.35;35.30;101969.19;4998501;28;51038;-55
2021/12/22 00:41:11;;;;;;;;;20.00;17.50;;;;;20.32;35.34;101970.44;5012165;28;51061;-55
2021/12/22 00:43:37;;;;;;;;;18.00;17.50;;;;;20.31;35.69;101973.34;5008705;28;51045;-53
2021/12/22 00:46:02;;;;;;;;;17.25;15.00;;;;;20.29;35.30;101975.44;5015354;28;51177;-54
2021/12/22 00:48:28;;;;;;;;;20.25;16.00;;;;;20.27;35.72;101972.91;5016653;28;51158;-54
2021/12/22 00:50:53;;;;;;;;;19.75;16.00;;;;;20.24;35.45;101980.69;5016808;28;53813;-54
2021/12/22 00:53:19;;;;;;;;;17.25;15.50;;;;;20.22;35.78;101971.75;5015592;28;51054;-54
2021/12/22 00:55:44;;;;;;;;;16.25;15.00;;;;;20.19;35.52;101965.59;5016423;28;51137;-52
2021/12/22 00:58:09;;;;;;;;;18.50;16.50;;;;;20.17;35.64;101980.59;5000587;28;51161;-50
2021/12/22 01:00:35;;;;;;;;;18.00;14.75;;;;;20.14;35.56;101970.84;5003559;28;51776;-51
2021/12/22 01:03:02;;;;;;;;;19.25;18.50;;;;;20.13;35.12;101973.78;5006797;28;51061;-52
2021/12/22 01:05:28;;;;;;;;;18.50;17.25;;;;;20.11;35.54;101971.25;5007187;28;51023;-54
2021/12/22 01:07:54;;;;;;;;;20.00;17.00;;;;;20.09;35.52;101972.44;5011122;28;51527;-54
2021/12/22 01:10:23;;;;;;;;;20.25;15.50;;;;;20.07;35.45;101969.91;5016087;28;51152;-54
2021/12/22 01:12:52;;;;;;;;;19.75;17.00;;;;;20.05;35.42;101974.75;5008762;28;51104;-53
2021/12/22 01:15:17;;;;;;;;;16.25;16.25;;;;;20.02;35.53;101969.63;5010787;28;51188;-51
2021/12/22 01:17:47;;;;;;;;;18.50;17.00;;;;;20.01;35.81;101973.44;5004497;28;51054;-49
2021/12/22 01:20:24;;;;;;;;;17.50;17.50;;;;;20.00;35.29;101965.34;4997608;28;51918;-51
2021/12/22 01:22:50;;;;;;;;;14.75;14.25;;;;;19.99;35.36;101971.91;5010271;28;51068;-49
2021/12/22 01:25:20;;;;;;;;;14.50;12.75;;;;;19.96;35.67;101970.41;5004907;28;51100;-53
2021/12/22 01:27:46;;;;;;;;;19.25;15.75;;;;;19.95;35.68;101974.19;5015427;28;50964;-55
2021/12/22 01:30:21;;;;;;;;;17.25;17.25;;;;;19.93;35.39;101965.28;5015529;28;51098;-54
2021/12/22 01:32:49;;;;;;;;;15.00;12.75;;;;;19.92;35.78;101959.97;5012516;28;51058;-53
2021/12/22 01:35:17;;;;;;;;;14.75;14.00;;;;;19.90;35.33;101960.16;5002038;28;51149;-53
2021/12/22 01:37:42;;;;;;;;;16.00;14.25;;;;;19.89;35.47;101952.94;5003340;28;51014;-54
2021/12/22 01:40:09;;;;;;;;;16.25;14.00;;;;;19.86;35.23;101950.59;4997107;28;51790;-53
2021/12/22 01:42:36;;;;;;;;;19.00;17.00;;;;;19.85;35.95;101957.13;5004984;28;51426;-53
2021/12/22 01:50:31;;;;;;;;;14.25;13.75;;;;;19.79;35.77;101955.13;5007403;28;51479;-54
2021/12/22 01:52:57;;;;;;;;;16.25;14.00;;;;;19.78;35.79;101956.19;5031507;28;51320;-54
2021/12/22 01:55:34;;;;;;;;;13.50;13.50;;;;;19.77;35.31;101943.47;5011632;28;51146;-52
2021/12/22 01:58:01;;;;;;;;;15.00;13.75;;;;;19.75;35.73;101954.69;5009132;28;51314;-54
2021/12/22 02:00:29;;;;;;;;;16.50;12.75;;;;;19.74;35.49;101952.13;5015193;28;52768;-54
2021/12/22 02:02:56;;;;;;;;;15.50;14.25;;;;;19.73;35.52;101953.16;5010463;28;51359;-54
2021/12/22 02:05:22;;;;;;;;;20.00;17.00;;;;;19.72;35.59;101956.97;5010116;28;51077;-53
2021/12/22 02:07:49;;;;;;;;;15.50;15.50;;;;;19.71;35.66;101956.13;5014462;28;51222;-54
2021/12/22 02:13:17;;;;;;;;;14.25;12.75;;;;;19.66;35.49;101950.31;4994781;28;51375;-54
2021/12/22 02:15:44;;;;;;;;;17.50;13.25;;;;;19.65;35.37;101948.63;5011968;28;51474;-50
2021/12/22 02:18:15;;;;;;;;;13.75;13.75;;;;;19.64;35.59;101946.91;5010325;28;51351;-53
2021/12/22 02:20:41;;;;;;;;;15.25;12.50;;;;;19.63;35.62;101953.47;5012782;28;52973;-52
2021/12/22 02:23:06;;;;;;;;;17.75;15.00;;;;;19.62;35.92;101953.66;4998824;28;50914;-53
2021/12/22 02:25:38;;;;;;;;;15.75;14.75;;;;;19.59;35.89;101949.34;4997161;28;51079;-55
2021/12/22 02:28:09;;;;;;;;;15.25;15.00;;;;;19.59;35.63;101960.34;5006201;28;51309;-53
2021/12/22 02:30:34;;;;;;;;;16.00;14.75;;;;;19.58;35.89;101955.91;4996224;28;52771;-53
2021/12/22 02:33:21;;;;;;;;;16.00;13.00;;;;;19.56;35.77;101947.84;4998821;28;51146;-54
2021/12/22 02:35:54;;;;;;;;;17.50;17.00;;;;;19.56;36.02;101958.00;4998224;28;52530;-54
2021/12/22 02:38:20;;;;;;;;;17.00;15.50;;;;;19.54;35.59;101947.16;5013052;28;51121;-52
2021/12/22 02:40:49;;;;;;;;;14.25;14.00;;;;;19.53;35.72;101959.19;5013228;28;52405;-49
2021/12/22 02:43:20;;;;;;;;;13.00;13.00;;;;;19.51;35.74;101944.81;5007429;28;51333;-53
2021/12/22 02:45:46;;;;;;;;;13.25;13.25;;;;;19.51;35.77;101950.31;5015618;28;51247;-51
2021/12/22 02:48:12;;;;;;;;;15.00;13.75;;;;;19.49;35.78;101941.41;5003214;28;51622;-52
2021/12/22 02:50:37;;;;;;;;;15.25;14.75;;;;;19.47;35.84;101946.19;4996204;28;51923;-52
2021/12/22 02:53:08;;;;;;;;;14.00;10.00;;;;;19.47;35.46;101945.34;4996538;28;51146;-51
2021/12/22 02:58:10;;;;;;;;;16.75;14.50;;;;;19.44;35.58;101932.84;5004530;28;51178;-53
2021/12/22 03:03:52;;;;;;;;;16.00;14.00;;;;;19.41;35.71;101937.88;5003039;28;51148;-52
2021/12/22 03:06:27;;;;;;;;;13.75;13.75;;;;;19.40;35.73;101931.53;4999462;28;51113;-53
2021/12/22 03:08:52;;;;;;;;;15.75;14.75;;;;;19.38;35.58;101939.09;5011563;28;51980;-50
2021/12/22 03:11:18;;;;;;;;;12.50;10.75;;;;;19.37;35.64;101940.13;5013800;28;51054;-54
2021/12/22 03:13:43;;;;;;;;;17.50;13.25;;;;;19.36;35.78;101938.44;5015020;28;51125;-51
2021/12/22 03:16:09;;;;;;;;;11.50;11.50;;;;;19.35;35.75;101938.63;5005328;28;51192;-55
2021/12/22 03:18:34;;;;;;;;;12.75;12.00;;;;;19.33;35.86;101936.91;5000550;28;51137;-52
2021/12/22 03:21:13;;;;;;;;;15.00;12.25;;;;;19.32;35.63;101934.38;4995898;28;51507;-54
2021/12/22 03:23:38;;;;;;;;;14.00;12.00;;;;;19.31;35.92;101932.66;5005925;28;51301;-54
2021/12/22 03:26:03;;;;;;;;;15.50;11.75;;;;;19.30;35.58;101936.47;5014880;28;51534;-54
2021/12/22 03:28:30;;;;;;;;;17.25;15.75;;;;;19.29;35.62;101938.34;5008402;28;51129;-52
2021/12/22 03:30:58;;;;;;;;;17.00;13.25;;;;;19.29;36.02;101945.75;5001534;28;51081;-53
2021/12/22 03:33:23;;;;;;;;;14.75;13.50;;;;;19.29;35.96;101948.50;5012481;28;51117;-52
2021/12/22 03:35:49;;;;;;;;;13.25;12.75;;;;;19.27;35.58;101936.81;5012507;28;51083;-52
2021/12/22 03:38:14;;;;;;;;;12.00;11.00;;;;;19.25;35.79;101942.50;5000834;28;51026;-52
2021/12/22 03:40:40;;;;;;;;;13.75;12.00;;;;;19.24;36.08;101934.44;4995174;28;51684;-54
2021/12/22 03:43:05;;;;;;;;;12.75;12.75;;;;;19.23;35.98;101936.34;5006595;28;51117;-54
2021/12/22 03:45:30;;;;;;;;;11.50;10.00;;;;;19.21;35.92;101927.44;5014417;28;51327;-54
2021/12/22 03:47:56;;;;;;;;;10.50;7.50;;;;;19.21;35.63;101921.94;5007234;28;51194;-54
2021/12/22 03:50:21;;;;;;;;;14.75;10.25;;;;;19.19;35.75;101929.53;4996520;28;50907;-54
2021/12/22 03:52:49;;;;;;;;;13.75;13.75;;;;;19.19;35.70;101943.25;5010471;28;51065;-53
2021/12/22 03:55:14;;;;;;;;;12.00;10.25;;;;;19.18;35.83;101936.06;5014636;28;51147;-51
2021/12/22 03:57:39;;;;;;;;;13.25;12.50;;;;;19.18;35.87;101940.72;5010840;28;51117;-55
2021/12/22 04:00:10;;;;;;;;;13.75;10.25;;;;;19.16;35.57;101934.53;5009288;28;53220;-49
2021/12/22 04:02:35;;;;;;;;;12.25;11.75;;;;;19.15;35.60;101932.81;5012920;28;51104;-52
2021/12/22 04:05:00;;;;;;;;;12.75;12.00;;;;;19.14;35.57;101931.97;4999463;28;50983;-53
2021/12/22 04:07:26;;;;;;;;;9.75;8.00;;;;;19.13;35.73;101934.91;4999292;28;51137;-53
2021/12/22 04:09:53;;;;;;;;;12.50;11.00;;;;;19.11;35.90;101929.59;5007273;28;50985;-54
2021/12/22 04:12:18;;;;;;;;;17.50;13.00;;;;;19.10;35.63;101922.41;4997808;28;51421;-54
2021/12/22 04:14:43;;;;;;;;;9.00;8.75;;;;;19.10;35.64;101913.31;5010263;28;51497;-52
2021/12/22 04:17:09;;;;;;;;;13.25;11.50;;;;;19.07;35.34;101909.06;4996518;28;51134;-50
2021/12/22 04:19:34;;;;;;;;;10.75;10.00;;;;;19.08;35.76;101909.91;5007408;28;51501;-54
2021/12/22 04:22:00;;;;;;;;;14.25;11.00;;;;;19.07;35.82;101905.44;5017157;28;51300;-51
2021/12/22 04:24:25;;;;;;;;;10.25;9.50;;;;;19.06;35.62;101910.06;5016575;28;51836;-54
2021/12/22 04:26:51;;;;;;;;;15.25;13.75;;;;;19.04;35.87;101902.03;5013895;28;51553;-53
2021/12/22 04:29:18;;;;;;;;;12.50;12.25;;;;;19.04;35.57;101906.66;5010723;28;51769;-53
2021/12/22 04:31:43;;;;;;;;;13.25;13.25;;;;;19.02;35.57;101911.50;5013491;28;51041;-54
2021/12/22 04:34:08;;;;;;;;;11.75;10.75;;;;;19.02;35.63;101922.50;5004107;28;51515;-51
2021/12/22 04:36:35;;;;;;;;;15.00;12.50;;;;;19.02;35.70;101930.72;5005653;28;50967;-52
2021/12/22 04:39:01;;;;;;;;;16.25;14.50;;;;;19.00;35.73;101919.09;5011225;28;51785;-53
2021/12/22 04:41:27;;;;;;;;;7.75;7.00;;;;;18.99;35.51;101918.22;5016644;28;51248;-53
2021/12/22 04:43:53;;;;;;;;;11.75;11.50;;;;;18.99;35.63;101925.63;5014862;28;51196;-53
2021/12/22 04:46:20;;;;;;;;;15.50;12.50;;;;;18.98;35.54;101927.50;5011699;28;51166;-52
2021/12/22 04:48:46;;;;;;;;;9.25;9.25;;;;;18.97;35.84;101931.28;5013582;28;52776;-49
2021/12/22 04:51:25;;;;;;;;;13.75;12.25;;;;;18.97;35.95;101936.78;4998053;28;51129;-51
2021/12/22 04:53:57;;;;;;;;;12.75;11.75;;;;;18.95;35.82;101927.00;4999262;28;51249;-52
2021/12/22 04:56:22;;;;;;;;;11.50;11.25;;;;;18.94;35.70;101930.78;5015860;28;51221;-50
2021/12/22 04:58:48;;;;;;;;;14.25;11.50;;;;;18.93;35.59;101932.69;5005944;28;51031;-51
2021/12/22 05:01:13;;;;;;;;;11.00;11.00;;;;;18.92;35.82;101930.97;4997792;28;51046;-50
2021/12/22 05:03:42;;;;;;;;;12.50;12.25;;;;;18.91;35.69;101923.78;4998249;28;51435;-54
2021/12/22 05:06:07;;;;;;;;;11.75;10.50;;;;;18.92;35.70;101919.16;5014047;28;52586;-54
2021/12/22 05:08:33;;;;;;;;;13.25;9.25;;;;;18.90;35.62;101921.25;5007804;28;51173;-51
2021/12/22 05:10:59;;;;;;;;;18.50;12.75;;;;;18.89;35.64;101925.88;5001444;28;51086;-53
2021/12/22 05:13:24;;;;;;;;;12.50;12.50;;;;;18.89;35.76;101919.53;5014073;28;51327;-57
2021/12/22 05:15:51;;;;;;;;;13.25;12.50;;;;;18.88;35.72;101904.94;5000218;28;51186;-53
2021/12/22 05:20:45;;;;;;;;;14.50;13.00;;;;;18.85;35.50;101890.72;5017199;28;51335;-52
2021/12/22 05:23:10;;;;;;;;;10.50;10.25;;;;;18.84;35.72;101889.03;5015602;28;51107;-54
2021/12/22 05:25:36;;;;;;;;;14.00;13.00;;;;;18.83;35.80;101893.66;5006072;28;51101;-51
2021/12/22 05:28:01;;;;;;;;;14.50;11.75;;;;;18.83;35.57;101890.91;5003622;28;51864;-51
2021/12/22 05:30:26;;;;;;;;;15.25;14.25;;;;;18.81;35.83;101898.50;5012592;28;51125;-54
2021/12/22 05:32:54;;;;;;;;;13.25;12.50;;;;;18.81;35.66;101897.63;5004801;28;51174;-53
2021/12/22 05:35:20;;;;;;;;;12.25;11.25;;;;;18.80;35.83;101899.53;5001697;28;50987;-54
2021/12/22 05:37:45;;;;;;;;;15.75;12.00;;;;;18.79;35.69;101911.56;5008060;28;51876;-55
2021/12/22 05:40:10;;;;;;;;;11.75;10.75;;;;;18.80;35.88;101906.91;5004706;28;51465;-52
2021/12/22 05:42:37;;;;;;;;;20.75;13.75;;;;;18.78;35.82;101904.38;5015870;28;51109;-54
2021/12/22 05:45:03;;;;;;;;;15.00;13.75;;;;;18.77;35.88;101908.16;5016657;28;51191;-50
2021/12/22 05:47:29;;;;;;;;;20.50;18.00;;;;;18.75;34.73;101923.91;5012797;28;51115;-53
2021/12/22 05:49:54;;;;;;;;;28.25;25.00;;;;;18.70;33.38;101916.25;5016208;28;51116;-50
2021/12/22 05:52:20;;;;;;;;;34.25;29.50;;;;;18.62;32.78;101919.03;5015764;28;51102;-53
2021/12/22 05:54:49;;;;;;;;;36.75;30.75;;;;;18.55;32.45;101922.69;4998430;28;51028;-50
2021/12/22 05:57:15;;;;;;;;;42.75;33.75;;;;;18.45;31.95;101921.06;5004339;28;50943;-50
2021/12/22 05:59:40;;;;;;;;;41.25;33.50;;;;;18.37;31.49;101923.00;5015073;28;51187;-53
2021/12/22 06:02:06;;;;;;;;;36.50;29.75;;;;;18.25;31.37;101932.69;5009841;28;51318;-55
2021/12/22 06:04:32;;;;;;;;;30.50;25.00;;;;;18.12;31.11;101936.88;5009191;28;52687;-54
2021/12/22 06:06:57;;;;;;;;;32.75;29.00;;;;;18.02;31.27;101929.91;5013370;28;51974;-51
2021/12/22 06:09:22;;;;;;;;;30.50;27.00;;;;;17.96;31.41;101938.84;5004825;28;51152;-51
2021/12/22 06:11:48;;;;;;;;;23.00;20.00;;;;;17.93;31.89;101929.13;5014762;28;51083;-50
2021/12/22 06:14:13;;;;;;;;;29.50;23.50;;;;;17.96;31.92;101922.41;5013092;28;51142;-54
2021/12/22 06:16:38;;;;;;;;;19.75;19.75;;;;;18.02;32.39;101927.16;5009100;28;52746;-52
2021/12/22 06:19:08;;;;;;;;;20.25;15.25;;;;;18.07;32.69;101920.13;4996694;28;51139;-53
2021/12/22 06:21:33;;;;;;;;;15.75;14.25;;;;;18.15;32.70;101919.22;5008325;28;51102;-54
2021/12/22 06:23:59;;;;;;;;;15.00;15.00;;;;;18.22;32.99;101920.19;5015854;28;51199;-53
2021/12/22 06:26:24;;;;;;;;;15.00;14.50;;;;;18.31;32.90;101920.97;5010589;28;51018;-54
2021/12/22 06:28:50;;;;;;;;;12.50;11.00;;;;;18.39;33.17;101915.44;5015895;28;51285;-54
2021/12/22 06:31:17;;;;;;;;;16.75;14.00;;;;;18.48;33.30;101911.59;5018726;28;51066;-49
2021/12/22 06:33:42;;;;;;;;;15.25;12.00;;;;;18.55;33.56;101909.84;5016511;28;51196;-53
2021/12/22 06:36:08;;;;;;;;;11.75;10.50;;;;;18.62;33.63;101919.03;5014138;28;52028;-53
2021/12/22 06:38:33;;;;;;;;;11.00;11.00;;;;;18.71;34.04;101922.59;5008637;28;51236;-54
2021/12/22 06:40:59;;;;;;;;;18.00;12.75;;;;;18.79;34.15;101919.78;5023556;28;52533;-54
2021/12/22 06:43:25;;;;;;;;;9.75;9.00;;;;;18.88;34.33;101917.84;5010750;28;51260;-52
2021/12/22 06:45:50;;;;;;;;;13.50;9.50;;;;;18.94;34.62;101923.41;5011574;28;52046;-51
2021/12/22 06:48:15;;;;;;;;;10.00;9.25;;;;;19.01;34.81;101927.13;5003562;28;51096;-51
2021/12/22 06:50:41;;;;;;;;;10.50;9.25;;;;;19.08;34.67;101923.66;5017124;28;51831;-52
2021/12/22 06:53:06;;;;;;;;;11.75;11.75;;;;;19.14;34.84;101939.34;5012064;28;51170;-53
2021/12/22 06:55:31;;;;;;;;;10.50;9.00;;;;;19.21;35.21;101940.31;5013275;28;51723;-54
2021/12/22 06:57:58;;;;;;;;;12.00;9.75;;;;;19.27;35.10;101945.91;5011845;28;51317;-53
2021/12/22 07:00:24;;;;;;;;;10.00;7.75;;;;;19.32;35.23;101940.72;5007749;28;51336;-54
2021/12/22 07:02:49;;;;;;;;;8.50;8.25;;;;;19.39;35.79;101935.34;5004787;28;51615;-58
2021/12/22 07:05:14;;;;;;;;;11.25;7.75;;;;;19.45;35.39;101942.78;5003553;28;51293;-55
2021/12/22 07:07:40;;;;;;;;;13.00;9.25;;;;;19.53;35.71;101947.34;5005005;28;51140;-52
2021/12/22 07:10:08;;;;;;;;;13.00;11.00;;;;;19.57;35.96;101944.06;5005915;28;51199;-51
2021/12/22 07:12:35;;;;;;;;;9.25;7.25;;;;;19.60;36.09;101932.72;4995671;28;51042;-53
2021/12/22 07:15:03;;;;;;;;;12.50;10.25;;;;;19.63;36.01;101920.47;5007003;28;51841;-54
2021/12/22 07:17:28;;;;;;;;;8.00;6.25;;;;;19.65;35.86;101921.13;4998316;28;51447;-52
2021/12/22 07:19:54;;;;;;;;;13.00;12.50;;;;;19.69;35.74;101918.84;5010197;28;51287;-53
2021/12/22 07:22:19;;;;;;;;;14.00;13.00;;;;;19.73;35.96;101925.69;4999849;28;50983;-54
2021/12/22 07:24:45;;;;;;;;;17.75;11.25;;;;;19.78;35.84;101923.19;5004891;28;51343;-51
2021/12/22 07:27:10;;;;;;;;;14.00;13.00;;;;;19.80;36.20;101929.34;5008385;28;51045;-54
2021/12/22 07:29:37;;;;;;;;;18.25;12.00;;;;;19.79;36.39;101934.00;4999361;28;51441;-54
2021/12/22 07:32:03;;;;;;;;;18.75;17.50;;;;;19.75;35.83;101923.59;5002815;28;51076;-53
2021/12/22 07:34:47;;;;;;;;;18.25;13.75;;;;;19.69;36.28;101930.69;4993787;28;51070;-54
2021/12/22 07:37:22;;;;;;;;;13.50;13.50;;;;;19.63;36.85;101928.72;4995324;28;51030;-51
2021/12/22 07:39:47;;;;;;;;;16.25;13.25;;;;;19.55;37.01;101932.41;4995695;28;51052;-54
2021/12/22 07:42:13;;;;;;;;;14.50;12.75;;;;;19.49;37.06;101930.41;4995647;28;51019;-53
2021/12/22 07:44:39;;;;;;;;;15.00;15.00;;;;;19.43;37.15;101925.66;4998867;28;51983;-53
2021/12/22 07:47:04;;;;;;;;;12.50;11.50;;;;;19.38;37.35;101924.50;5015298;28;51061;-55
2021/12/22 07:49:29;;;;;;;;;15.75;13.75;;;;;19.32;37.40;101926.13;5015204;28;51647;-54
2021/12/22 07:51:55;;;;;;;;;15.50;14.50;;;;;19.27;37.54;101931.31;5011239;28;51018;-54
2021/12/22 07:54:20;;;;;;;;;14.50;12.50;;;;;19.22;37.70;101928.28;4997824;28;51053;-50
2021/12/22 07:56:46;;;;;;;;;13.25;11.75;;;;;19.17;37.89;101925.25;4999399;28;51271;-51
2021/12/22 07:59:11;;;;;;;;;15.25;12.50;;;;;19.12;38.06;101928.56;4998497;28;51056;-54
2021/12/22 08:01:36;;;;;;;;;19.00;15.25;;;;;19.09;38.07;101928.09;5000124;28;51252;-54
2021/12/22 08:04:02;;;;;;;;;15.25;12.75;;;;;19.05;38.24;101933.09;5003487;28;51868;-54
2021/12/22 08:06:27;;;;;;;;;15.50;11.50;;;;;19.02;38.54;101939.81;5018575;28;50985;-54
2021/12/22 08:08:53;;;;;;;;;14.50;11.50;;;;;18.97;38.50;101942.28;5018951;28;51198;-53
2021/12/22 08:11:18;;;;;;;;;17.25;14.25;;;;;18.95;38.39;101946.22;5002850;28;50982;-51
2021/12/22 08:13:44;;;;;;;;;16.00;15.00;;;;;18.90;38.58;101948.69;4998432;28;52118;-54
2021/12/22 08:16:09;;;;;;;;;13.50;9.75;;;;;18.87;38.53;101938.94;4999556;28;50917;-51
2021/12/22 08:18:35;;;;;;;;;13.25;13.25;;;;;18.83;38.41;101945.81;4998396;28;51228;-55
2021/12/22 08:21:00;;;;;;;;;14.50;11.75;;;;;18.81;38.83;101936.94;4998985;28;50930;-54
2021/12/22 08:23:26;;;;;;;;;11.75;11.75;;;;;18.79;38.81;101932.66;5013506;28;51738;-54
2021/12/22 08:25:51;;;;;;;;;15.75;13.00;;;;;18.75;38.96;101926.66;5012527;28;51128;-53
2021/12/22 08:28:17;;;;;;;;;15.00;11.75;;;;;18.72;39.07;101925.16;5020700;28;51146;-54
2021/12/22 08:30:43;;;;;;;;;14.50;11.25;;;;;18.70;38.93;101929.97;5009208;28;51217;-54
2021/12/22 08:33:22;;;;;;;;;12.75;12.75;;;;;18.68;38.46;101910.09;4999441;28;52533;-54
2021/12/22 08:38:53;;;;;;;;;17.25;14.00;;;;;18.63;38.56;101928.13;5008845;28;51185;-54
2021/12/22 08:41:30;;;;;;;;;17.25;13.50;;;;;18.61;38.39;101925.56;5006039;28;51182;-53
2021/12/22 08:43:59;;;;;;;;;21.25;18.75;;;;;18.58;38.43;101938.81;4997955;28;51411;-55
2021/12/22 08:46:25;;;;;;;;;21.00;18.00;;;;;18.55;38.37;101926.31;5014253;28;51823;-55
2021/12/22 08:48:51;;;;;;;;;25.00;21.25;;;;;18.53;38.09;101917.38;4997232;28;51201;-54
2021/12/22 08:51:16;;;;;;;;;26.75;20.75;;;;;18.51;38.32;101913.97;4997374;28;51332;-50
2021/12/22 08:53:41;;;;;;;;;24.25;19.25;;;;;18.49;38.22;101924.28;5007636;28;50977;-49
2021/12/22 08:56:07;;;;;;;;;23.25;20.25;;;;;18.49;37.98;101917.94;5009596;28;50994;-51
2021/12/22 08:58:33;;;;;;;;;26.50;21.50;;;;;18.46;38.19;101914.53;5000305;28;51134;-51
2021/12/22 09:01:00;;;;;;;;;23.25;20.00;;;;;18.43;38.31;101906.66;5009782;28;51145;-52
2021/12/22 09:03:26;;;;;;;;;24.75;23.00;;;;;18.40;38.37;101909.78;5007160;28;52622;-54
2021/12/22 09:05:51;;;;;;;;;19.50;17.75;;;;;18.39;38.70;101908.06;5012781;28;51341;-51
2021/12/22 09:08:16;;;;;;;;;23.00;18.75;;;;;18.37;38.97;101904.66;5004223;28;51167;-51
2021/12/22 09:10:42;;;;;;;;;20.50;16.75;;;;;18.36;38.76;101911.19;5000755;28;51352;-55
2021/12/22 09:13:07;;;;;;;;;20.25;19.00;;;;;18.35;38.99;101904.00;4999956;28;51384;-54
2021/12/22 09:15:33;;;;;;;;;20.75;16.75;;;;;18.33;39.13;101910.69;5002293;28;51106;-54
2021/12/22 09:17:58;;;;;;;;;17.75;16.75;;;;;18.30;39.36;101909.16;5007037;28;50991;-54
2021/12/22 09:20:24;;;;;;;;;15.50;15.25;;;;;18.29;39.38;101901.97;5005246;28;51296;-54
2021/12/22 09:22:49;;;;;;;;;13.25;13.25;;;;;18.28;39.40;101905.75;5002145;28;51637;-55
2021/12/22 09:25:15;;;;;;;;;15.00;15.00;;;;;18.26;39.34;101905.09;5003591;28;51088;-54
2021/12/22 09:27:40;;;;;;;;;17.00;15.75;;;;;18.25;39.65;101908.88;5013202;28;51205;-53
2021/12/22 09:30:07;;;;;;;;;16.50;14.50;;;;;18.23;39.55;101910.91;5007092;28;51252;-53
2021/12/22 09:32:32;;;;;;;;;15.50;12.75;;;;;18.21;39.49;101907.50;5002866;28;52431;-53
2021/12/22 09:34:58;;;;;;;;;14.00;12.75;;;;;18.21;39.85;101899.28;5009444;28;51185;-55
2021/12/22 09:37:23;;;;;;;;;16.50;12.25;;;;;18.19;39.86;101898.63;4999475;28;51097;-54
2021/12/22 09:39:49;;;;;;;;;14.50;12.75;;;;;18.17;39.86;101900.69;5003455;28;52107;-55
2021/12/22 09:42:15;;;;;;;;;15.50;15.25;;;;;18.16;39.89;101916.28;5007620;28;51739;-52
2021/12/22 09:44:45;;;;;;;;;16.00;14.25;;;;;18.16;39.84;101913.53;5014876;28;51395;-54
2021/12/22 09:47:15;;;;;;;;;11.50;10.25;;;;;18.14;40.14;101912.88;5000190;28;51212;-54
2021/12/22 09:52:23;;;;;;;;;15.75;12.25;;;;;18.13;40.22;101918.53;5010419;28;51062;-57
2021/12/22 09:54:51;;;;;;;;;14.00;14.00;;;;;18.11;40.29;101913.22;5013832;28;51084;-54
2021/12/22 09:57:18;;;;;;;;;15.00;12.25;;;;;18.10;40.31;101918.88;5014771;28;51197;-54
2021/12/22 09:59:49;;;;;;;;;13.00;11.50;;;;;18.08;40.21;101918.22;4998750;28;51411;-53
2021/12/22 10:02:17;;;;;;;;;15.25;12.75;;;;;18.08;40.27;101934.69;5003382;28;51841;-54
2021/12/22 10:04:43;;;;;;;;;14.75;14.00;;;;;18.07;40.48;101925.59;4996174;28;51054;-50
2021/12/22 10:07:16;;;;;;;;;16.00;13.25;;;;;18.05;40.54;101922.19;4996083;28;51978;-54
2021/12/22 10:09:45;;;;;;;;;12.25;11.25;;;;;18.05;40.89;101922.19;5004622;28;51219;-55
2021/12/22 10:12:20;;;;;;;;;17.25;14.75;;;;;18.04;40.65;101916.88;4996546;28;51322;-51
2021/12/22 10:15:00;;;;;;;;;12.75;12.75;;;;;18.03;40.82;101915.16;5012679;28;51090;-54
2021/12/22 10:17:39;;;;;;;;;16.50;12.00;;;;;18.01;40.96;101912.59;5014549;28;51135;-55
2021/12/22 10:20:31;;;;;;;;;13.00;12.00;;;;;18.00;41.08;101924.59;5013887;28;51524;-55
2021/12/22 10:22:56;;;;;;;;;15.50;13.00;;;;;18.00;40.72;101913.63;5014483;28;51135;-54
2021/12/22 10:25:26;;;;;;;;;9.25;6.50;;;;;17.98;40.87;101918.44;5009252;28;51161;-52
2021/12/22 10:28:05;;;;;;;;;12.00;11.50;;;;;17.96;41.22;101912.28;5009571;28;51350;-54
2021/12/22 10:30:55;;;;;;;;;12.75;9.50;;;;;17.95;40.96;101918.81;5013437;28;51350;-54
2021/12/22 10:33:24;;;;;;;;;14.00;13.00;;;;;17.97;40.66;101918.63;5001936;28;51933;-54
2021/12/22 10:36:03;;;;;;;;;18.25;14.00;;;;;17.97;40.47;101916.75;5004063;28;51217;-55
2021/12/22 10:38:31;;;;;;;;;12.00;11.75;;;;;17.97;40.59;101916.75;5008330;28;51061;-54
2021/12/22 10:41:16;;;;;;;;;13.75;13.75;;;;;17.96;41.14;101905.97;4996936;28;50975;-54
2021/12/22 10:43:50;;;;;;;;;14.25;13.50;;;;;17.95;41.05;101907.00;5004230;28;52008;-54
2021/12/22 10:46:42;;;;;;;;;13.50;11.50;;;;;17.92;41.10;101905.44;5012450;28;51196;-53
2021/12/22 10:49:19;;;;;;;;;16.75;16.25;;;;;17.91;40.61;101895.50;5015998;28;51138;-55
2021/12/22 10:51:54;;;;;;;;;14.50;9.75;;;;;17.92;40.57;101890.88;5009819;28;51069;-55
2021/12/22 10:54:20;;;;;;;;;15.50;14.50;;;;;17.93;40.89;101877.03;5005752;28;52100;-53
2021/12/22 10:56:47;;;;;;;;;14.75;10.75;;;;;17.92;40.90;101860.72;5010435;28;51146;-55
2021/12/22 10:59:13;;;;;;;;;17.00;14.75;;;;;17.91;40.82;101859.88;5008030;28;51318;-54
2021/12/22 11:01:52;;;;;;;;;13.00;12.25;;;;;17.89;40.86;101859.22;5014164;28;50976;-55
2021/12/22 11:04:22;;;;;;;;;12.25;10.50;;;;;17.88;40.88;101855.63;4994434;28;51845;-55
2021/12/22 11:06:50;;;;;;;;;16.50;13.25;;;;;17.89;40.62;101857.31;4994468;28;51307;-53
2021/12/22 11:09:17;;;;;;;;;12.50;11.00;;;;;17.91;40.63;101859.03;4999877;28;51127;-57
2021/12/22 11:11:54;;;;;;;;;16.25;13.75;;;;;17.89;40.86;101860.06;5012661;28;51279;-55
2021/12/22 11:14:30;;;;;;;;;12.75;11.50;;;;;17.88;40.95;101858.38;5013036;28;51042;-55
2021/12/22 11:16:58;;;;;;;;;12.25;12.25;;;;;17.86;41.31;101851.38;5013463;28;51468;-54
2021/12/22 11:19:27;;;;;;;;;13.25;12.75;;;;;17.87;40.92;101855.81;5006833;28;51160;-51
2021/12/22 11:22:05;;;;;;;;;15.00;13.00;;;;;17.87;40.57;101844.84;5009706;28;51430;-54
2021/12/22 11:24:33;;;;;;;;;17.75;15.75;;;;;17.87;40.80;101839.38;4995334;28;51082;-58
2021/12/22 11:26:59;;;;;;;;;16.25;12.25;;;;;17.85;40.94;101836.81;4995801;28;51136;-51
2021/12/22 11:29:25;;;;;;;;;18.00;16.25;;;;;17.83;41.22;101827.06;5001319;28;51075;-54
2021/12/22 11:31:51;;;;;;;;;20.00;13.75;;;;;17.81;41.35;101831.84;5003791;28;50939;-54
2021/12/22 11:34:19;;;;;;;;;17.25;15.50;;;;;17.80;41.08;101825.50;4995558;28;52304;-54